createdAt,value
2017-07-15T00:00:02.856Z,1012.54
2017-07-15T00:01:02.774Z,1012.53
2017-07-15T00:02:02.806Z,1012.53
2017-07-15T00:03:02.835Z,1012.52
2017-07-15T00:04:02.855Z,1012.56
2017-07-15T00:05:02.917Z,1012.48
2017-07-15T00:06:02.942Z,1012.48
2017-07-15T00:07:02.949Z,1012.46
2017-07-15T00:08:02.985Z,1012.5
2017-07-15T00:09:03.034Z,1012.5
2017-07-15T00:10:03.065Z,1012.51
2017-07-15T00:11:03.196Z,1012.4
2017-07-15T00:12:03.131Z,1012.47
2017-07-15T00:13:03.173Z,1012.5
2017-07-15T00:14:03.186Z,1012.44
2017-07-15T00:15:03.229Z,1012.49
2017-07-15T00:16:03.262Z,1012.47
2017-07-15T00:17:03.297Z,1012.43
2017-07-15T00:18:03.327Z,1012.44
2017-07-15T00:19:03.358Z,1012.44
2017-07-15T00:20:03.399Z,1012.44
2017-07-15T00:21:03.430Z,1012.43
2017-07-15T00:22:03.460Z,1012.44
2017-07-15T00:23:03.496Z,1012.44
2017-07-15T00:24:03.527Z,1012.48
2017-07-15T00:25:03.564Z,1012.49
2017-07-15T00:26:03.595Z,1012.46
2017-07-15T00:27:03.625Z,1012.45
2017-07-15T00:28:03.667Z,1012.41
2017-07-15T00:29:03.693Z,1012.45
2017-07-15T00:30:03.706Z,1012.45
2017-07-15T00:31:03.849Z,1012.39
2017-07-15T00:32:03.785Z,1012.41
2017-07-15T00:33:03.894Z,1012.42
2017-07-15T00:34:04.051Z,1012.44
2017-07-15T00:35:03.891Z,1012.39
2017-07-15T00:36:03.917Z,1012.43
2017-07-15T00:37:03.954Z,1012.41
2017-07-15T00:38:03.972Z,1012.45
2017-07-15T00:39:04.026Z,1012.38
2017-07-15T00:40:04.053Z,1012.42
2017-07-15T00:41:04.084Z,1012.39
2017-07-15T00:42:04.164Z,1012.43
2017-07-15T00:43:04.137Z,1012.43
2017-07-15T00:44:04.444Z,1012.4
2017-07-15T00:45:04.397Z,1012.43
2017-07-15T00:46:04.250Z,1012.45
2017-07-15T00:47:04.261Z,1012.48
2017-07-15T00:48:04.315Z,1012.44
2017-07-15T00:49:04.347Z,1012.5
2017-07-15T00:50:04.463Z,1012.47
2017-07-15T00:51:04.407Z,1012.48
2017-07-15T00:52:04.463Z,1012.52
2017-07-15T00:53:04.472Z,1012.44
2017-07-15T00:54:04.510Z,1012.5
2017-07-15T00:55:04.533Z,1012.49
2017-07-15T00:56:04.573Z,1012.49
2017-07-15T00:57:04.607Z,1012.47
2017-07-15T00:58:04.639Z,1012.48
2017-07-15T00:59:04.671Z,1012.52
2017-07-15T01:00:04.759Z,1012.54
2017-07-15T01:01:04.736Z,1012.52
2017-07-15T01:02:04.776Z,1012.51
2017-07-15T01:03:04.803Z,1012.49
2017-07-15T01:04:04.839Z,1012.5
2017-07-15T01:05:04.851Z,1012.54
2017-07-15T01:06:04.901Z,1012.55
2017-07-15T01:07:04.935Z,1012.53
2017-07-15T01:08:04.970Z,1012.58
2017-07-15T01:09:05.003Z,1012.6
2017-07-15T01:10:05.067Z,1012.58
2017-07-15T01:11:05.070Z,1012.59
2017-07-15T01:12:05.098Z,1012.59
2017-07-15T01:13:05.131Z,1012.64
2017-07-15T01:14:05.163Z,1012.59
2017-07-15T01:15:05.199Z,1012.66
2017-07-15T01:16:05.257Z,1012.66
2017-07-15T01:17:05.265Z,1012.7
2017-07-15T01:18:05.310Z,1012.76
2017-07-15T01:19:05.329Z,1012.77
2017-07-15T01:20:05.363Z,1012.75
2017-07-15T01:21:05.377Z,1012.73
2017-07-15T01:22:05.426Z,1012.8
2017-07-15T01:23:05.462Z,1012.8
2017-07-15T01:24:05.475Z,1012.79
2017-07-15T01:25:05.529Z,1012.79
2017-07-15T01:26:05.557Z,1012.81
2017-07-15T01:27:05.578Z,1012.81
2017-07-15T01:28:05.626Z,1012.83
2017-07-15T01:29:05.658Z,1012.8
2017-07-15T01:30:05.671Z,1012.84
2017-07-15T01:31:05.723Z,1012.84
2017-07-15T01:32:05.756Z,1012.82
2017-07-15T01:33:05.770Z,1012.81
2017-07-15T01:34:05.823Z,1012.87
2017-07-15T01:35:05.856Z,1012.9
2017-07-15T01:36:05.885Z,1012.91
2017-07-15T01:37:05.919Z,1012.96
2017-07-15T01:38:05.952Z,1012.94
2017-07-15T01:39:05.963Z,1012.97
2017-07-15T01:40:06.023Z,1013.01
2017-07-15T01:41:06.053Z,1013.04
2017-07-15T01:42:06.062Z,1013.04
2017-07-15T01:43:06.097Z,1013.07
2017-07-15T01:44:06.152Z,1013.07
2017-07-15T01:45:06.183Z,1013.06
2017-07-15T01:46:06.205Z,1013.07
2017-07-15T01:47:06.248Z,1013.06
2017-07-15T01:48:06.282Z,1013.07
2017-07-15T01:49:06.312Z,1013.09
2017-07-15T01:50:06.355Z,1013.05
2017-07-15T01:51:06.377Z,1013.13
2017-07-15T01:52:06.437Z,1013.08
2017-07-15T01:53:06.461Z,1013.08
2017-07-15T01:54:06.539Z,1013.13
2017-07-15T01:55:06.520Z,1013.08
2017-07-15T01:56:06.528Z,1013.12
2017-07-15T01:57:06.580Z,1013.11
2017-07-15T01:58:06.610Z,1013.11
2017-07-15T01:59:06.644Z,1013.11
2017-07-15T02:00:06.676Z,1013.11
2017-07-15T02:01:06.709Z,1013.09
2017-07-15T02:02:06.740Z,1013.12
2017-07-15T02:03:06.782Z,1013.09
2017-07-15T02:04:06.808Z,1013.16
2017-07-15T02:05:06.841Z,1013.11
2017-07-15T02:06:06.876Z,1013.13
2017-07-15T02:07:06.906Z,1013.13
2017-07-15T02:08:07.019Z,1013.14
2017-07-15T02:09:06.975Z,1013.17
2017-07-15T02:10:06.984Z,1013.12
2017-07-15T02:11:07.020Z,1013.12
2017-07-15T02:12:07.070Z,1013.15
2017-07-15T02:13:07.082Z,1013.13
2017-07-15T02:14:07.136Z,1013.15
2017-07-15T02:15:07.174Z,1013.14
2017-07-15T02:16:07.196Z,1013.15
2017-07-15T02:17:07.236Z,1013.17
2017-07-15T02:18:07.268Z,1013.15
2017-07-15T02:19:07.285Z,1013.18
2017-07-15T02:20:07.327Z,1013.24
2017-07-15T02:21:07.364Z,1013.18
2017-07-15T02:22:07.385Z,1013.18
2017-07-15T02:23:07.425Z,1013.2
2017-07-15T02:24:07.459Z,1013.21
2017-07-15T02:25:07.491Z,1013.18
2017-07-15T02:26:07.527Z,1013.23
2017-07-15T02:27:07.560Z,1013.19
2017-07-15T02:28:07.590Z,1013.28
2017-07-15T02:29:07.879Z,1013.23
2017-07-15T02:30:07.657Z,1013.24
2017-07-15T02:31:07.693Z,1013.3
2017-07-15T02:32:07.713Z,1013.24
2017-07-15T02:33:07.743Z,1013.29
2017-07-15T02:34:07.793Z,1013.22
2017-07-15T02:35:07.817Z,1013.24
2017-07-15T02:36:07.841Z,1013.25
2017-07-15T02:37:07.885Z,1013.25
2017-07-15T02:38:07.908Z,1013.24
2017-07-15T02:39:07.954Z,1013.23
2017-07-15T02:40:07.983Z,1013.24
2017-07-15T02:41:08.022Z,1013.25
2017-07-15T02:42:08.048Z,1013.23
2017-07-15T02:43:08.083Z,1013.21
2017-07-15T02:44:08.113Z,1013.23
2017-07-15T02:45:08.145Z,1013.25
2017-07-15T02:46:08.181Z,1013.24
2017-07-15T02:47:08.215Z,1013.24
2017-07-15T02:48:08.243Z,1013.25
2017-07-15T02:49:08.266Z,1013.29
2017-07-15T02:50:08.310Z,1013.27
2017-07-15T02:51:08.343Z,1013.27
2017-07-15T02:52:08.375Z,1013.36
2017-07-15T02:53:08.406Z,1013.31
2017-07-15T02:54:08.427Z,1013.34
2017-07-15T02:55:08.476Z,1013.3
2017-07-15T02:56:08.602Z,1013.37
2017-07-15T02:57:08.520Z,1013.33
2017-07-15T02:58:08.569Z,1013.35
2017-07-15T02:59:08.604Z,1013.39
2017-07-15T03:00:08.615Z,1013.46
2017-07-15T03:01:08.672Z,1013.42
2017-07-15T03:02:08.703Z,1013.45
2017-07-15T03:03:08.730Z,1013.48
2017-07-15T03:04:08.764Z,1013.43
2017-07-15T03:05:08.801Z,1013.47
2017-07-15T03:06:08.831Z,1013.49
2017-07-15T03:07:08.863Z,1013.45
2017-07-15T03:08:08.894Z,1013.47
2017-07-15T03:09:08.929Z,1013.48
2017-07-15T03:10:08.965Z,1013.52
2017-07-15T03:11:08.996Z,1013.51
2017-07-15T03:12:09.026Z,1013.55
2017-07-15T03:13:09.058Z,1013.52
2017-07-15T03:14:09.088Z,1013.56
2017-07-15T03:15:09.126Z,1013.53
2017-07-15T03:16:09.160Z,1013.59
2017-07-15T03:17:09.194Z,1013.55
2017-07-15T03:18:09.223Z,1013.56
2017-07-15T03:19:09.259Z,1013.58
2017-07-15T03:20:09.332Z,1013.58
2017-07-15T03:21:09.325Z,1013.53
2017-07-15T03:22:09.418Z,1013.58
2017-07-15T03:23:09.386Z,1013.55
2017-07-15T03:24:09.417Z,1013.56
2017-07-15T03:25:09.458Z,1013.56
2017-07-15T03:26:09.486Z,1013.56
2017-07-15T03:27:09.516Z,1013.59
2017-07-15T03:28:09.549Z,1013.62
2017-07-15T03:29:09.581Z,1013.59
2017-07-15T03:30:09.617Z,1013.63
2017-07-15T03:31:09.649Z,1013.64
2017-07-15T03:32:09.678Z,1013.65
2017-07-15T03:33:09.703Z,1013.67
2017-07-15T03:34:09.749Z,1013.65
2017-07-15T03:35:09.772Z,1013.68
2017-07-15T03:36:09.869Z,1013.67
2017-07-15T03:37:09.842Z,1013.72
2017-07-15T03:38:09.880Z,1013.76
2017-07-15T03:39:09.908Z,1013.75
2017-07-15T03:40:09.939Z,1013.75
2017-07-15T03:41:09.970Z,1013.71
2017-07-15T03:42:10.322Z,1013.75
2017-07-15T03:43:10.040Z,1013.73
2017-07-15T03:44:10.071Z,1013.75
2017-07-15T03:45:10.105Z,1013.73
2017-07-15T03:46:10.137Z,1013.72
2017-07-15T03:47:10.172Z,1013.71
2017-07-15T03:48:10.202Z,1013.71
2017-07-15T03:49:10.235Z,1013.76
2017-07-15T03:50:10.267Z,1013.75
2017-07-15T03:51:10.301Z,1013.75
2017-07-15T03:52:10.339Z,1013.79
2017-07-15T03:53:10.366Z,1013.79
2017-07-15T03:54:10.394Z,1013.81
2017-07-15T03:55:10.433Z,1013.85
2017-07-15T03:56:10.466Z,1013.9
2017-07-15T03:57:10.496Z,1013.9
2017-07-15T03:58:10.528Z,1013.88
2017-07-15T03:59:10.546Z,1013.92
2017-07-15T04:00:14.317Z,1013.93
2017-07-15T04:01:14.328Z,1013.95
2017-07-15T04:02:14.582Z,1013.95
2017-07-15T04:03:14.611Z,1013.94
2017-07-15T04:04:14.450Z,1014
2017-07-15T04:05:14.462Z,1014
2017-07-15T04:06:14.516Z,1014.01
2017-07-15T04:07:14.525Z,1014.05
2017-07-15T04:08:14.551Z,1014.04
2017-07-15T04:09:14.593Z,1014.07
2017-07-15T04:10:14.646Z,1014.09
2017-07-15T04:11:14.656Z,1014.08
2017-07-15T04:12:14.716Z,1014.1
2017-07-15T04:13:14.724Z,1014.11
2017-07-15T04:14:14.755Z,1014.09
2017-07-15T04:15:14.814Z,1014.15
2017-07-15T04:16:14.846Z,1014.17
2017-07-15T04:17:14.879Z,1014.2
2017-07-15T04:18:14.914Z,1014.24
2017-07-15T04:19:14.947Z,1014.22
2017-07-15T04:20:14.955Z,1014.17
2017-07-15T04:21:15.013Z,1014.23
2017-07-15T04:22:15.047Z,1014.18
2017-07-15T04:23:15.077Z,1014.22
2017-07-15T04:24:15.091Z,1014.25
2017-07-15T04:25:15.123Z,1014.37
2017-07-15T04:26:15.183Z,1014.36
2017-07-15T04:27:15.214Z,1014.46
2017-07-15T04:28:15.246Z,1014.49
2017-07-15T04:29:15.258Z,1014.54
2017-07-15T04:30:15.318Z,1014.53
2017-07-15T04:31:15.351Z,1014.56
2017-07-15T04:32:15.385Z,1014.56
2017-07-15T04:33:15.392Z,1014.52
2017-07-15T04:34:15.453Z,1014.44
2017-07-15T04:35:15.482Z,1014.34
2017-07-15T04:36:15.523Z,1014.4
2017-07-15T04:37:15.534Z,1014.38
2017-07-15T04:38:15.568Z,1014.36
2017-07-15T04:39:15.604Z,1014.39
2017-07-15T04:40:15.640Z,1014.42
2017-07-15T04:41:15.674Z,1014.38
2017-07-15T04:42:15.729Z,1014.38
2017-07-15T04:43:15.919Z,1014.44
2017-07-15T04:44:15.777Z,1014.4
2017-07-15T04:45:15.840Z,1014.44
2017-07-15T04:46:15.847Z,1014.43
2017-07-15T04:47:15.881Z,1014.41
2017-07-15T04:48:15.920Z,1014.43
2017-07-15T04:49:15.981Z,1014.43
2017-07-15T04:50:15.987Z,1014.44
2017-07-15T04:51:16.018Z,1014.44
2017-07-15T04:52:16.087Z,1014.46
2017-07-15T04:53:16.105Z,1014.41
2017-07-15T04:54:16.157Z,1014.46
2017-07-15T04:55:16.195Z,1014.46
2017-07-15T04:56:16.224Z,1014.51
2017-07-15T04:57:16.233Z,1014.44
2017-07-15T04:58:16.292Z,1014.43
2017-07-15T04:59:16.329Z,1014.47
2017-07-15T05:00:16.360Z,1014.46
2017-07-15T05:01:16.397Z,1014.46
2017-07-15T05:02:16.432Z,1014.48
2017-07-15T05:03:16.471Z,1014.44
2017-07-15T05:04:16.490Z,1014.5
2017-07-15T05:05:16.543Z,1014.53
2017-07-15T05:06:16.552Z,1014.52
2017-07-15T05:07:16.609Z,1014.5
2017-07-15T05:08:16.646Z,1014.55
2017-07-15T05:09:16.662Z,1014.58
2017-07-15T05:10:16.693Z,1014.57
2017-07-15T05:11:16.751Z,1014.52
2017-07-15T05:12:16.765Z,1014.56
2017-07-15T05:13:16.809Z,1014.54
2017-07-15T05:14:16.836Z,1014.58
2017-07-15T05:15:16.898Z,1014.56
2017-07-15T05:16:16.905Z,1014.57
2017-07-15T05:17:16.968Z,1014.58
2017-07-15T05:18:17.005Z,1014.62
2017-07-15T05:19:17.036Z,1014.54
2017-07-15T05:20:17.074Z,1014.56
2017-07-15T05:21:17.109Z,1014.66
2017-07-15T05:22:17.120Z,1014.65
2017-07-15T05:23:17.155Z,1014.63
2017-07-15T05:24:17.191Z,1014.64
2017-07-15T05:25:17.236Z,1014.63
2017-07-15T05:26:17.292Z,1014.72
2017-07-15T05:27:17.308Z,1014.74
2017-07-15T05:28:17.360Z,1014.77
2017-07-15T05:29:17.399Z,1014.76
2017-07-15T05:30:17.405Z,1014.85
2017-07-15T05:31:17.472Z,1014.9
2017-07-15T05:32:17.485Z,1014.88
2017-07-15T05:33:17.545Z,1014.92
2017-07-15T05:34:17.585Z,1014.93
2017-07-15T05:35:17.589Z,1014.9
2017-07-15T05:36:17.631Z,1014.88
2017-07-15T05:37:17.694Z,1014.9
2017-07-15T05:38:17.731Z,1014.95
2017-07-15T05:39:17.765Z,1014.95
2017-07-15T05:40:17.802Z,1015
2017-07-15T05:41:17.843Z,1015
2017-07-15T05:42:17.877Z,1015.04
2017-07-15T05:43:17.912Z,1015.07
2017-07-15T05:44:17.927Z,1014.98
2017-07-15T05:45:17.989Z,1014.99
2017-07-15T05:46:18.000Z,1014.98
2017-07-15T05:47:18.040Z,1015
2017-07-15T05:48:18.102Z,1014.97
2017-07-15T05:49:18.141Z,1014.97
2017-07-15T05:50:18.179Z,1014.96
2017-07-15T05:51:18.216Z,1014.97
2017-07-15T05:52:18.229Z,1014.99
2017-07-15T05:53:18.290Z,1014.94
2017-07-15T05:54:18.304Z,1015.02
2017-07-15T05:55:18.346Z,1014.97
2017-07-15T05:56:18.407Z,1015.01
2017-07-15T05:57:18.420Z,1015
2017-07-15T05:58:18.482Z,1015.05
2017-07-15T05:59:18.519Z,1015.02
2017-07-15T06:00:18.533Z,1015.19
2017-07-15T06:01:18.600Z,1015.18
2017-07-15T06:02:18.602Z,1015.15
2017-07-15T06:03:18.673Z,1015.13
2017-07-15T06:04:18.714Z,1015.09
2017-07-15T06:05:18.724Z,1015.15
2017-07-15T06:06:18.766Z,1015.2
2017-07-15T06:07:18.803Z,1015.24
2017-07-15T06:08:18.863Z,1015.17
2017-07-15T06:09:18.906Z,1015.21
2017-07-15T06:10:18.915Z,1015.26
2017-07-15T06:11:18.979Z,1015.17
2017-07-15T06:12:19.017Z,1015.21
2017-07-15T06:13:19.028Z,1015.17
2017-07-15T06:14:19.091Z,1015.22
2017-07-15T06:15:19.107Z,1015.25
2017-07-15T06:16:19.170Z,1015.24
2017-07-15T06:17:19.189Z,1015.22
2017-07-15T06:18:19.244Z,1015.47
2017-07-15T06:19:19.259Z,1015.51
2017-07-15T06:20:19.302Z,1015.32
2017-07-15T06:21:19.537Z,1015.41
2017-07-15T06:22:19.607Z,1015.33
2017-07-15T06:23:20.281Z,1015.55
2017-07-15T06:24:20.083Z,1015.58
2017-07-15T06:25:19.738Z,1015.63
2017-07-15T06:26:19.552Z,1015.66
2017-07-15T06:27:19.588Z,1015.61
2017-07-15T06:28:20.231Z,1015.5
2017-07-15T06:29:19.685Z,1015.54
2017-07-15T06:30:19.913Z,1015.6
2017-07-15T06:31:19.733Z,1015.57
2017-07-15T06:32:19.787Z,1015.54
2017-07-15T06:33:20.029Z,1015.59
2017-07-15T06:34:19.864Z,1015.63
2017-07-15T06:35:19.907Z,1015.68
2017-07-15T06:36:19.959Z,1015.68
2017-07-15T06:37:19.958Z,1015.73
2017-07-15T06:38:20.002Z,1015.75
2017-07-15T06:39:20.070Z,1015.74
2017-07-15T06:40:20.111Z,1015.77
2017-07-15T06:41:23.129Z,1015.8
2017-07-15T06:42:20.166Z,1015.76
2017-07-15T06:43:21.664Z,1015.83
2017-07-15T06:44:20.277Z,1015.85
2017-07-15T06:45:20.318Z,1015.87
2017-07-15T06:46:20.357Z,1015.82
2017-07-15T06:47:20.374Z,1015.85
2017-07-15T06:48:20.644Z,1015.65
2017-07-15T06:49:20.498Z,1015.91
2017-07-15T06:50:20.971Z,1015.85
2017-07-15T06:51:20.770Z,1015.87
2017-07-15T06:52:20.588Z,1015.78
2017-07-15T06:53:20.624Z,1015.93
2017-07-15T06:54:20.914Z,1016.03
2017-07-15T06:55:20.932Z,1015.95
2017-07-15T06:56:20.797Z,1015.97
2017-07-15T06:57:21.006Z,1015.97
2017-07-15T06:58:21.061Z,1016.01
2017-07-15T06:59:20.903Z,1016.03
2017-07-15T07:00:20.925Z,1016.06
2017-07-15T07:01:20.994Z,1015.91
2017-07-15T07:02:21.037Z,1016.08
2017-07-15T07:03:21.077Z,1016.13
2017-07-15T07:04:21.094Z,1015.86
2017-07-15T07:05:21.171Z,1016.09
2017-07-15T07:06:21.209Z,1016.01
2017-07-15T07:07:21.249Z,1015.95
2017-07-15T07:08:21.266Z,1015.89
2017-07-15T07:09:21.317Z,1016
2017-07-15T07:10:21.354Z,1016.23
2017-07-15T07:11:21.396Z,1016.17
2017-07-15T07:12:21.441Z,1016.19
2017-07-15T07:13:21.508Z,1016.25
2017-07-15T07:14:21.527Z,1016.21
2017-07-15T07:15:21.591Z,1016.21
2017-07-15T07:16:21.613Z,1016.1
2017-07-15T07:17:21.653Z,1016.06
2017-07-15T07:18:21.716Z,1016.22
2017-07-15T07:19:21.759Z,1016.15
2017-07-15T07:20:21.806Z,1016.24
2017-07-15T07:21:21.849Z,1016.19
2017-07-15T07:22:21.890Z,1016.22
2017-07-15T07:23:21.916Z,1016.22
2017-07-15T07:24:21.953Z,1016.21
2017-07-15T07:25:21.997Z,1016.21
2017-07-15T07:26:22.066Z,1016.18
2017-07-15T07:27:22.110Z,1016.19
2017-07-15T07:28:22.120Z,1016.12
2017-07-15T07:29:22.197Z,1016.16
2017-07-15T07:30:22.240Z,1016.08
2017-07-15T07:31:22.282Z,1015.98
2017-07-15T07:32:22.302Z,1016.23
2017-07-15T07:33:22.374Z,1016.11
2017-07-15T07:34:22.417Z,1016.14
2017-07-15T07:35:22.438Z,1015.99
2017-07-15T07:36:22.503Z,1016.03
2017-07-15T07:37:22.547Z,1016.08
2017-07-15T07:38:22.589Z,1016.14
2017-07-15T07:39:22.603Z,1016.24
2017-07-15T07:40:22.677Z,1016.4
2017-07-15T07:41:22.717Z,1016.09
2017-07-15T07:42:22.758Z,1016.15
2017-07-15T07:43:22.810Z,1016.38
2017-07-15T07:44:22.845Z,1016.16
2017-07-15T07:45:22.864Z,1016.52
2017-07-15T07:46:23.010Z,1016.15
2017-07-15T07:47:22.976Z,1016.52
2017-07-15T07:48:22.994Z,1016.45
2017-07-15T07:49:23.032Z,1016.43
2017-07-15T07:50:23.078Z,1016.53
2017-07-15T07:51:23.148Z,1016.5
2017-07-15T07:52:23.167Z,1016.52
2017-07-15T07:53:23.232Z,1016.18
2017-07-15T07:54:23.278Z,1016.18
2017-07-15T07:55:23.329Z,1016.57
2017-07-15T07:56:23.334Z,1016.53
2017-07-15T07:57:23.413Z,1016.53
2017-07-15T07:58:23.427Z,1016.6
2017-07-15T07:59:23.468Z,1016.61
2017-07-15T08:00:23.536Z,1016.66
2017-07-15T08:01:23.559Z,1016.64
2017-07-15T08:02:23.602Z,1016.29
2017-07-15T08:03:23.643Z,1016.6
2017-07-15T08:04:23.689Z,1016.35
2017-07-15T08:05:23.760Z,1016.68
2017-07-15T08:06:23.780Z,1016.71
2017-07-15T08:07:23.818Z,1016.44
2017-07-15T08:08:23.868Z,1016.38
2017-07-15T08:09:23.937Z,1016.43
2017-07-15T08:10:23.974Z,1016.62
2017-07-15T08:11:24.001Z,1016.59
2017-07-15T08:12:24.040Z,1016.49
2017-07-15T08:13:24.083Z,1016.56
2017-07-15T08:14:24.121Z,1016.46
2017-07-15T08:15:24.167Z,1017.14
2017-07-15T08:16:24.238Z,1017.11
2017-07-15T08:17:24.279Z,1017.07
2017-07-15T08:18:24.299Z,1017.06
2017-07-15T08:19:24.365Z,1017.1
2017-07-15T08:20:24.399Z,1016.95
2017-07-15T08:21:24.433Z,1016.93
2017-07-15T08:22:24.494Z,1017.06
2017-07-15T08:23:24.539Z,1017.06
2017-07-15T08:24:24.560Z,1017.07
2017-07-15T08:25:24.627Z,1017.13
2017-07-15T08:26:24.672Z,1017.13
2017-07-15T08:27:24.695Z,1016.44
2017-07-15T08:28:24.741Z,1016.48
2017-07-15T08:29:24.810Z,1016.46
2017-07-15T08:30:24.825Z,1016.54
2017-07-15T08:31:24.893Z,1017.26
2017-07-15T08:32:24.936Z,1017.23
2017-07-15T08:33:24.956Z,1017.25
2017-07-15T08:34:25.027Z,1017.26
2017-07-15T08:35:25.067Z,1017.28
2017-07-15T08:36:25.091Z,1016.6
2017-07-15T08:37:25.134Z,1017.38
2017-07-15T08:38:25.178Z,1016.79
2017-07-15T08:39:25.218Z,1016.66
2017-07-15T08:40:25.290Z,1017.45
2017-07-15T08:41:25.307Z,1016.81
2017-07-15T08:42:25.378Z,1016.76
2017-07-15T08:43:25.400Z,1016.79
2017-07-15T08:44:25.467Z,1016.79
2017-07-15T08:45:25.511Z,1016.87
2017-07-15T08:46:25.525Z,1016.83
2017-07-15T08:47:25.600Z,1016.93
2017-07-15T08:48:25.643Z,1016.78
2017-07-15T08:49:25.660Z,1016.78
2017-07-15T08:50:25.705Z,1016.93
2017-07-15T08:51:25.775Z,1016.87
2017-07-15T08:52:25.826Z,1016.81
2017-07-15T08:53:25.827Z,1016.85
2017-07-15T08:54:25.900Z,1016.89
2017-07-15T08:55:25.942Z,1017.06
2017-07-15T08:56:25.983Z,1017.06
2017-07-15T08:57:26.000Z,1017.8
2017-07-15T08:58:26.066Z,1017.43
2017-07-15T08:59:26.106Z,1017.68
2017-07-15T09:00:26.119Z,1017.06
2017-07-15T09:01:26.200Z,1016.99
2017-07-15T09:02:26.233Z,1016.95
2017-07-15T09:03:26.250Z,1016.97
2017-07-15T09:04:26.317Z,1016.96
2017-07-15T09:05:26.330Z,1017.18
2017-07-15T09:06:26.402Z,1017.02
2017-07-15T09:07:26.442Z,1017.58
2017-07-15T09:08:26.463Z,1017.03
2017-07-15T09:09:26.526Z,1016.99
2017-07-15T09:10:26.567Z,1017.06
2017-07-15T09:11:26.589Z,1017.08
2017-07-15T09:12:26.624Z,1017.67
2017-07-15T09:13:26.672Z,1017.83
2017-07-15T09:14:26.736Z,1017.07
2017-07-15T09:15:26.750Z,1017.25
2017-07-15T09:16:26.818Z,1017.79
2017-07-15T09:17:26.843Z,1017.75
2017-07-15T09:18:26.905Z,1017.2
2017-07-15T09:19:26.941Z,1017.81
2017-07-15T09:20:26.990Z,1017.75
2017-07-15T09:21:27.039Z,1017.44
2017-07-15T09:22:27.053Z,1016.89
2017-07-15T09:23:27.099Z,1016.94
2017-07-15T09:24:27.137Z,1017.42
2017-07-15T09:25:27.178Z,1017.12
2017-07-15T09:26:27.248Z,1017.04
2017-07-15T09:27:27.290Z,1017.28
2017-07-15T09:28:27.334Z,1017.55
2017-07-15T09:29:27.356Z,1017.43
2017-07-15T09:30:27.403Z,1017.38
2017-07-15T09:31:27.445Z,1017.26
2017-07-15T09:32:27.485Z,1017.12
2017-07-15T09:33:27.533Z,1017.45
2017-07-15T09:34:27.600Z,1017.4
2017-07-15T09:35:27.643Z,1016.94
2017-07-15T09:36:27.664Z,1016.91
2017-07-15T09:37:27.734Z,1016.96
2017-07-15T09:38:27.778Z,1016.98
2017-07-15T09:39:27.801Z,1017.05
2017-07-15T09:40:27.841Z,1016.96
2017-07-15T09:41:27.911Z,1017.01
2017-07-15T09:42:27.933Z,1017.02
2017-07-15T09:43:27.999Z,1017.26
2017-07-15T09:44:28.043Z,1017.39
2017-07-15T09:45:28.065Z,1017.14
2017-07-15T09:46:28.128Z,1017.61
2017-07-15T09:47:28.148Z,1017.65
2017-07-15T09:48:28.222Z,1017.66
2017-07-15T09:49:28.242Z,1017.73
2017-07-15T09:50:28.280Z,1017.71
2017-07-15T09:51:28.452Z,1017.84
2017-07-15T09:52:28.371Z,1017.85
2017-07-15T09:53:28.421Z,1017.9
2017-07-15T09:54:28.456Z,1017.86
2017-07-15T09:55:28.504Z,1016.98
2017-07-15T09:56:28.576Z,1017.05
2017-07-15T09:57:28.621Z,1017.91
2017-07-15T09:58:28.668Z,1017.93
2017-07-15T09:59:28.712Z,1017.89
2017-07-15T10:00:28.761Z,1017.86
2017-07-15T10:01:28.803Z,1017.85
2017-07-15T10:02:28.841Z,1017.9
2017-07-15T10:03:28.873Z,1017.84
2017-07-15T10:04:28.933Z,1017.77
2017-07-15T10:05:28.967Z,1017.75
2017-07-15T10:06:29.041Z,1017.25
2017-07-15T10:07:29.104Z,1017.55
2017-07-15T10:08:29.137Z,1017.41
2017-07-15T10:09:29.179Z,1017.35
2017-07-15T10:10:29.204Z,1017
2017-07-15T10:11:29.251Z,1017.02
2017-07-15T10:12:29.297Z,1017.15
2017-07-15T10:13:29.362Z,1017.2
2017-07-15T10:14:29.413Z,1018.03
2017-07-15T10:15:29.455Z,1017.63
2017-07-15T10:16:29.476Z,1017.43
2017-07-15T10:17:29.542Z,1017.28
2017-07-15T10:18:29.563Z,1018.2
2017-07-15T10:19:29.612Z,1017.33
2017-07-15T10:20:29.657Z,1018.52
2017-07-15T10:21:29.697Z,1017.27
2017-07-15T10:22:29.767Z,1017.29
2017-07-15T10:23:29.812Z,1017.65
2017-07-15T10:24:29.839Z,1018.64
2017-07-15T10:25:29.898Z,1017.76
2017-07-15T10:26:29.940Z,1018.7
2017-07-15T10:27:29.975Z,1018.55
2017-07-15T10:28:30.003Z,1018.65
2017-07-15T10:29:30.074Z,1018.63
2017-07-15T10:30:30.090Z,1018.71
2017-07-15T10:31:30.158Z,1018.73
2017-07-15T10:32:30.174Z,1018.76
2017-07-15T10:33:30.245Z,1018.9
2017-07-15T10:34:30.271Z,1018.95
2017-07-15T10:35:30.306Z,1018.98
2017-07-15T10:36:30.380Z,1019.01
2017-07-15T10:37:30.423Z,1018.99
2017-07-15T10:38:30.465Z,1018.54
2017-07-15T10:39:30.483Z,1017.65
2017-07-15T10:40:30.549Z,1017.42
2017-07-15T10:41:30.571Z,1017.45
2017-07-15T10:42:30.640Z,1017.48
2017-07-15T10:43:30.656Z,1017.67
2017-07-15T10:44:30.704Z,1017.67
2017-07-15T10:45:30.775Z,1017.83
2017-07-15T10:46:30.786Z,1017.94
2017-07-15T10:47:30.955Z,1018.27
2017-07-15T10:48:30.874Z,1017.61
2017-07-15T10:49:30.916Z,1017.55
2017-07-15T10:50:30.967Z,1017.5
2017-07-15T10:51:31.025Z,1017.48
2017-07-15T10:52:31.046Z,1017.46
2017-07-15T10:53:31.109Z,1017.44
2017-07-15T10:54:31.130Z,1017.43
2017-07-15T10:55:31.166Z,1017.42
2017-07-15T10:56:31.217Z,1017.46
2017-07-15T10:57:31.256Z,1017.47
2017-07-15T10:58:31.293Z,1017.48
2017-07-15T10:59:31.362Z,1017.51
2017-07-15T11:00:31.399Z,1017.48
2017-07-15T11:01:31.432Z,1017.5
2017-07-15T11:02:31.491Z,1017.6
2017-07-15T11:03:31.525Z,1017.62
2017-07-15T11:04:31.542Z,1017.6
2017-07-15T11:05:31.576Z,1017.7
2017-07-15T11:06:31.629Z,1017.58
2017-07-15T11:07:31.663Z,1017.57
2017-07-15T11:08:31.731Z,1017.68
2017-07-15T11:09:31.769Z,1017.72
2017-07-15T11:10:31.813Z,1017.81
2017-07-15T11:11:31.849Z,1017.77
2017-07-15T11:12:31.889Z,1017.79
2017-07-15T11:13:31.929Z,1017.81
2017-07-15T11:14:31.950Z,1017.69
2017-07-15T11:15:32.014Z,1017.64
2017-07-15T11:16:32.031Z,1017.62
2017-07-15T11:17:32.088Z,1017.56
2017-07-15T11:18:32.132Z,1017.59
2017-07-15T11:19:32.175Z,1017.66
2017-07-15T11:20:32.215Z,1017.69
2017-07-15T11:21:32.236Z,1017.69
2017-07-15T11:22:32.268Z,1017.71
2017-07-15T11:23:32.335Z,1017.63
2017-07-15T11:24:32.380Z,1017.6
2017-07-15T11:25:32.414Z,1017.64
2017-07-15T11:26:32.458Z,1017.63
2017-07-15T11:27:32.471Z,1017.62
2017-07-15T11:28:32.536Z,1017.63
2017-07-15T11:29:32.584Z,1017.63
2017-07-15T11:30:32.619Z,1017.7
2017-07-15T11:31:32.633Z,1017.66
2017-07-15T11:32:32.674Z,1017.71
2017-07-15T11:33:32.740Z,1017.71
2017-07-15T11:34:32.756Z,1017.68
2017-07-15T11:35:32.821Z,1017.62
2017-07-15T11:36:32.862Z,1017.64
2017-07-15T11:37:32.871Z,1017.65
2017-07-15T11:38:32.919Z,1017.61
2017-07-15T11:39:32.982Z,1017.63
2017-07-15T11:40:32.997Z,1017.58
2017-07-15T11:41:33.067Z,1017.58
2017-07-15T11:42:33.074Z,1017.59
2017-07-15T11:43:33.118Z,1017.59
2017-07-15T11:44:33.183Z,1017.65
2017-07-15T11:45:33.223Z,1017.56
2017-07-15T11:46:33.234Z,1017.54
2017-07-15T11:47:33.277Z,1017.54
2017-07-15T11:48:33.320Z,1017.49
2017-07-15T11:49:33.358Z,1017.48
2017-07-15T11:50:33.399Z,1017.55
2017-07-15T11:51:33.445Z,1017.41
2017-07-15T11:52:33.472Z,1017.47
2017-07-15T11:53:33.545Z,1017.49
2017-07-15T11:54:33.583Z,1017.49
2017-07-15T11:55:33.621Z,1017.49
2017-07-15T11:56:33.637Z,1017.46
2017-07-15T11:57:33.673Z,1017.52
2017-07-15T11:58:33.712Z,1017.49
2017-07-15T11:59:33.783Z,1017.51
2017-07-15T12:00:33.820Z,1017.58
2017-07-15T12:01:33.859Z,1017.56
2017-07-15T12:02:33.870Z,1017.58
2017-07-15T12:03:33.935Z,1017.62
2017-07-15T12:04:33.981Z,1017.51
2017-07-15T12:05:33.989Z,1017.53
2017-07-15T12:06:34.057Z,1017.59
2017-07-15T12:07:34.077Z,1017.56
2017-07-15T12:08:34.113Z,1017.6